sensor_id;sensor_type;location;lat;lon;timestamp;temperature;humidity
3792;DHT22;1911;53.768;11.474;2023-12-20T00:00:52;5.40;99.90
3792;DHT22;1911;53.768;11.474;2023-12-20T00:03:17;5.40;99.90
3792;DHT22;1911;53.768;11.474;2023-12-20T00:05:43;5.40;99.90
3792;DHT22;1911;53.768;11.474;2023-12-20T00:08:09;5.40;99.90
3792;DHT22;1911;53.768;11.474;2023-12-20T00:10:34;5.30;99.90
3792;DHT22;1911;53.768;11.474;2023-12-20T00:13:00;5.30;99.90
3792;DHT22;1911;53.768;11.474;2023-12-20T00:15:26;5.30;99.90
3792;DHT22;1911;53.768;11.474;2023-12-20T00:17:51;5.20;99.90
3792;DHT22;1911;53.768;11.474;2023-12-20T00:20:17;5.20;99.90
3792;DHT22;1911;53.768;11.474;2023-12-20T00:22:42;5.00;99.90
3792;DHT22;1911;53.768;11.474;2023-12-20T00:25:08;5.10;99.90
3792;DHT22;1911;53.768;11.474;2023-12-20T00:27:33;5.10;99.90
3792;DHT22;1911;53.768;11.474;2023-12-20T00:29:59;5.10;99.90
3792;DHT22;1911;53.768;11.474;2023-12-20T00:32:25;5.10;99.90
3792;DHT22;1911;53.768;11.474;2023-12-20T00:34:50;5.10;99.90
3792;DHT22;1911;53.768;11.474;2023-12-20T00:37:16;5.10;99.90
3792;DHT22;1911;53.768;11.474;2023-12-20T00:39:42;5.00;99.90
3792;DHT22;1911;53.768;11.474;2023-12-20T00:42:07;5.00;99.90
3792;DHT22;1911;53.768;11.474;2023-12-20T00:44:33;4.90;99.90
3792;DHT22;1911;53.768;11.474;2023-12-20T00:46:59;4.90;99.90
3792;DHT22;1911;53.768;11.474;2023-12-20T00:49:24;4.90;99.90
3792;DHT22;1911;53.768;11.474;2023-12-20T00:51:50;4.90;99.90
3792;DHT22;1911;53.768;11.474;2023-12-20T00:54:17;4.80;99.90
3792;DHT22;1911;53.768;11.474;2023-12-20T00:56:43;4.80;99.90
3792;DHT22;1911;53.768;11.474;2023-12-20T00:59:09;4.80;99.90
3792;DHT22;1911;53.768;11.474;2023-12-20T01:01:35;4.80;99.90
3792;DHT22;1911;53.768;11.474;2023-12-20T01:04:00;4.80;99.90
3792;DHT22;1911;53.768;11.474;2023-12-20T01:06:26;4.80;99.90
3792;DHT22;1911;53.768;11.474;2023-12-20T01:08:51;4.80;99.90
3792;DHT22;1911;53.768;11.474;2023-12-20T01:11:17;4.70;99.90
3792;DHT22;1911;53.768;11.474;2023-12-20T01:13:43;4.70;99.90
3792;DHT22;1911;53.768;11.474;2023-12-20T01:16:10;4.60;99.90
3792;DHT22;1911;53.768;11.474;2023-12-20T01:18:37;4.70;99.90
3792;DHT22;1911;53.768;11.474;2023-12-20T01:21:03;4.60;99.90
3792;DHT22;1911;53.768;11.474;2023-12-20T01:23:32;4.70;99.90
3792;DHT22;1911;53.768;11.474;2023-12-20T01:25:58;4.70;99.90
3792;DHT22;1911;53.768;11.474;2023-12-20T01:28:25;4.60;99.90
3792;DHT22;1911;53.768;11.474;2023-12-20T01:30:51;4.60;99.90
3792;DHT22;1911;53.768;11.474;2023-12-20T01:33:16;4.60;99.90
3792;DHT22;1911;53.768;11.474;2023-12-20T01:35:42;4.60;99.90
3792;DHT22;1911;53.768;11.474;2023-12-20T01:38:08;4.50;99.90
3792;DHT22;1911;53.768;11.474;2023-12-20T01:40:34;4.50;99.90
3792;DHT22;1911;53.768;11.474;2023-12-20T01:43:08;4.50;99.90
3792;DHT22;1911;53.768;11.474;2023-12-20T01:45:34;4.50;99.90
3792;DHT22;1911;53.768;11.474;2023-12-20T01:48:00;4.50;99.90
3792;DHT22;1911;53.768;11.474;2023-12-20T01:50:28;4.50;99.90
3792;DHT22;1911;53.768;11.474;2023-12-20T01:52:55;4.40;99.90
3792;DHT22;1911;53.768;11.474;2023-12-20T01:55:23;4.50;99.90
3792;DHT22;1911;53.768;11.474;2023-12-20T01:57:52;4.40;99.90
3792;DHT22;1911;53.768;11.474;2023-12-20T02:00:18;4.50;99.90
3792;DHT22;1911;53.768;11.474;2023-12-20T02:02:46;4.50;99.90
3792;DHT22;1911;53.768;11.474;2023-12-20T02:05:12;4.50;99.90
3792;DHT22;1911;53.768;11.474;2023-12-20T02:07:38;4.60;99.90
3792;DHT22;1911;53.768;11.474;2023-12-20T02:10:04;4.60;99.90
3792;DHT22;1911;53.768;11.474;2023-12-20T02:12:30;4.60;99.90
3792;DHT22;1911;53.768;11.474;2023-12-20T02:14:56;4.70;99.90
3792;DHT22;1911;53.768;11.474;2023-12-20T02:17:22;4.70;99.90
3792;DHT22;1911;53.768;11.474;2023-12-20T02:19:49;4.70;99.90
3792;DHT22;1911;53.768;11.474;2023-12-20T02:22:14;4.80;99.90
3792;DHT22;1911;53.768;11.474;2023-12-20T02:24:40;4.80;99.90
3792;DHT22;1911;53.768;11.474;2023-12-20T02:27:06;4.80;99.90
3792;DHT22;1911;53.768;11.474;2023-12-20T02:29:36;4.80;99.90
3792;DHT22;1911;53.768;11.474;2023-12-20T02:32:01;4.90;99.90
3792;DHT22;1911;53.768;11.474;2023-12-20T02:34:28;4.90;99.90
3792;DHT22;1911;53.768;11.474;2023-12-20T02:36:54;4.90;99.90
3792;DHT22;1911;53.768;11.474;2023-12-20T02:39:19;4.90;99.90
3792;DHT22;1911;53.768;11.474;2023-12-20T02:41:45;4.90;99.90
3792;DHT22;1911;53.768;11.474;2023-12-20T02:44:10;4.90;99.90
3792;DHT22;1911;53.768;11.474;2023-12-20T02:46:36;4.90;99.90
3792;DHT22;1911;53.768;11.474;2023-12-20T02:49:02;4.90;99.90
3792;DHT22;1911;53.768;11.474;2023-12-20T02:51:27;4.90;99.90
3792;DHT22;1911;53.768;11.474;2023-12-20T02:53:53;4.90;99.90
3792;DHT22;1911;53.768;11.474;2023-12-20T02:56:19;5.00;99.90
3792;DHT22;1911;53.768;11.474;2023-12-20T02:58:44;5.00;99.90
3792;DHT22;1911;53.768;11.474;2023-12-20T03:01:10;5.00;99.90
3792;DHT22;1911;53.768;11.474;2023-12-20T03:03:35;5.00;99.90
3792;DHT22;1911;53.768;11.474;2023-12-20T03:06:01;5.00;99.90
3792;DHT22;1911;53.768;11.474;2023-12-20T03:08:26;5.00;99.90
3792;DHT22;1911;53.768;11.474;2023-12-20T03:10:52;5.00;99.90
3792;DHT22;1911;53.768;11.474;2023-12-20T03:13:19;5.00;99.90
3792;DHT22;1911;53.768;11.474;2023-12-20T03:15:45;5.00;99.90
3792;DHT22;1911;53.768;11.474;2023-12-20T03:18:10;4.90;99.90
3792;DHT22;1911;53.768;11.474;2023-12-20T03:20:36;4.90;99.90
3792;DHT22;1911;53.768;11.474;2023-12-20T03:23:02;4.90;99.90
3792;DHT22;1911;53.768;11.474;2023-12-20T03:25:27;4.90;99.90
3792;DHT22;1911;53.768;11.474;2023-12-20T03:27:53;4.90;99.90
3792;DHT22;1911;53.768;11.474;2023-12-20T03:30:19;5.00;99.90
3792;DHT22;1911;53.768;11.474;2023-12-20T03:32:45;5.00;99.90
3792;DHT22;1911;53.768;11.474;2023-12-20T03:35:11;5.00;99.90
3792;DHT22;1911;53.768;11.474;2023-12-20T03:37:37;5.00;99.90
3792;DHT22;1911;53.768;11.474;2023-12-20T03:40:03;5.00;99.90
3792;DHT22;1911;53.768;11.474;2023-12-20T03:42:28;5.00;99.90
3792;DHT22;1911;53.768;11.474;2023-12-20T03:44:54;5.00;99.90
3792;DHT22;1911;53.768;11.474;2023-12-20T03:47:20;5.00;99.90
3792;DHT22;1911;53.768;11.474;2023-12-20T03:49:45;5.10;99.90
3792;DHT22;1911;53.768;11.474;2023-12-20T03:52:11;5.10;99.90
3792;DHT22;1911;53.768;11.474;2023-12-20T03:54:37;5.10;99.90
3792;DHT22;1911;53.768;11.474;2023-12-20T03:57:04;5.10;99.90
3792;DHT22;1911;53.768;11.474;2023-12-20T03:59:30;5.10;99.90
3792;DHT22;1911;53.768;11.474;2023-12-20T04:01:55;5.10;99.90
3792;DHT22;1911;53.768;11.474;2023-12-20T04:04:21;5.10;99.90
3792;DHT22;1911;53.768;11.474;2023-12-20T04:06:46;5.10;99.90
3792;DHT22;1911;53.768;11.474;2023-12-20T04:09:12;5.10;99.90
3792;DHT22;1911;53.768;11.474;2023-12-20T04:11:38;5.10;99.90
3792;DHT22;1911;53.768;11.474;2023-12-20T04:14:04;5.10;99.90
3792;DHT22;1911;53.768;11.474;2023-12-20T04:16:32;5.10;99.90
3792;DHT22;1911;53.768;11.474;2023-12-20T04:18:58;5.10;99.90
3792;DHT22;1911;53.768;11.474;2023-12-20T04:21:24;5.00;99.90
3792;DHT22;1911;53.768;11.474;2023-12-20T04:23:49;5.00;99.90
3792;DHT22;1911;53.768;11.474;2023-12-20T04:26:15;5.00;99.90
3792;DHT22;1911;53.768;11.474;2023-12-20T04:28:40;5.10;99.90
3792;DHT22;1911;53.768;11.474;2023-12-20T04:31:06;5.10;99.90
3792;DHT22;1911;53.768;11.474;2023-12-20T04:33:32;5.10;99.90
3792;DHT22;1911;53.768;11.474;2023-12-20T04:35:58;5.00;99.90
3792;DHT22;1911;53.768;11.474;2023-12-20T04:38:23;5.10;99.90
3792;DHT22;1911;53.768;11.474;2023-12-20T04:40:49;5.00;99.90
3792;DHT22;1911;53.768;11.474;2023-12-20T04:43:14;5.00;99.90
3792;DHT22;1911;53.768;11.474;2023-12-20T04:45:40;5.10;99.90
3792;DHT22;1911;53.768;11.474;2023-12-20T04:48:06;5.10;99.90
3792;DHT22;1911;53.768;11.474;2023-12-20T04:50:31;5.10;99.90
3792;DHT22;1911;53.768;11.474;2023-12-20T04:52:58;5.10;99.90
3792;DHT22;1911;53.768;11.474;2023-12-20T04:55:24;5.10;99.90
3792;DHT22;1911;53.768;11.474;2023-12-20T04:57:49;5.10;99.90
3792;DHT22;1911;53.768;11.474;2023-12-20T05:00:15;5.10;99.90
3792;DHT22;1911;53.768;11.474;2023-12-20T05:02:41;5.10;99.90
3792;DHT22;1911;53.768;11.474;2023-12-20T05:05:07;5.10;99.90
3792;DHT22;1911;53.768;11.474;2023-12-20T05:07:33;5.10;99.90
3792;DHT22;1911;53.768;11.474;2023-12-20T05:09:58;5.10;99.90
3792;DHT22;1911;53.768;11.474;2023-12-20T05:12:24;5.10;99.90
3792;DHT22;1911;53.768;11.474;2023-12-20T05:14:51;5.10;99.90
3792;DHT22;1911;53.768;11.474;2023-12-20T05:17:17;5.10;99.90
3792;DHT22;1911;53.768;11.474;2023-12-20T05:19:42;5.10;99.90
3792;DHT22;1911;53.768;11.474;2023-12-20T05:22:08;5.10;99.90
3792;DHT22;1911;53.768;11.474;2023-12-20T05:24:34;5.10;99.90
3792;DHT22;1911;53.768;11.474;2023-12-20T05:26:59;5.10;99.90
3792;DHT22;1911;53.768;11.474;2023-12-20T05:29:25;5.10;99.90
3792;DHT22;1911;53.768;11.474;2023-12-20T05:31:51;5.10;99.90
3792;DHT22;1911;53.768;11.474;2023-12-20T05:34:16;5.20;99.90
3792;DHT22;1911;53.768;11.474;2023-12-20T05:36:42;5.10;99.90
3792;DHT22;1911;53.768;11.474;2023-12-20T05:39:07;5.10;99.90
3792;DHT22;1911;53.768;11.474;2023-12-20T05:41:33;5.10;99.90
3792;DHT22;1911;53.768;11.474;2023-12-20T05:43:59;5.10;99.90
3792;DHT22;1911;53.768;11.474;2023-12-20T05:46:25;5.10;99.90
3792;DHT22;1911;53.768;11.474;2023-12-20T05:48:50;5.10;99.90
3792;DHT22;1911;53.768;11.474;2023-12-20T05:51:17;5.10;99.90
3792;DHT22;1911;53.768;11.474;2023-12-20T05:53:42;5.10;99.90
3792;DHT22;1911;53.768;11.474;2023-12-20T05:56:09;5.10;99.90
3792;DHT22;1911;53.768;11.474;2023-12-20T05:58:35;5.20;99.90
3792;DHT22;1911;53.768;11.474;2023-12-20T06:01:00;5.10;99.90
3792;DHT22;1911;53.768;11.474;2023-12-20T06:03:26;5.10;99.90
3792;DHT22;1911;53.768;11.474;2023-12-20T06:05:51;5.10;99.90
3792;DHT22;1911;53.768;11.474;2023-12-20T06:08:17;5.10;99.90
3792;DHT22;1911;53.768;11.474;2023-12-20T06:10:43;5.10;99.90
3792;DHT22;1911;53.768;11.474;2023-12-20T06:13:08;5.10;99.90
3792;DHT22;1911;53.768;11.474;2023-12-20T06:15:34;5.10;99.90
3792;DHT22;1911;53.768;11.474;2023-12-20T06:18:00;5.10;99.90
3792;DHT22;1911;53.768;11.474;2023-12-20T06:20:26;5.10;99.90
3792;DHT22;1911;53.768;11.474;2023-12-20T06:22:52;5.20;99.90
3792;DHT22;1911;53.768;11.474;2023-12-20T06:25:17;5.20;99.90
3792;DHT22;1911;53.768;11.474;2023-12-20T06:27:43;5.20;99.90
3792;DHT22;1911;53.768;11.474;2023-12-20T06:30:09;5.10;99.90
3792;DHT22;1911;53.768;11.474;2023-12-20T06:32:35;5.10;99.90
3792;DHT22;1911;53.768;11.474;2023-12-20T06:35:01;5.10;99.90
3792;DHT22;1911;53.768;11.474;2023-12-20T06:37:26;5.10;99.90
3792;DHT22;1911;53.768;11.474;2023-12-20T06:39:52;5.10;99.90
3792;DHT22;1911;53.768;11.474;2023-12-20T06:42:18;5.20;99.90
3792;DHT22;1911;53.768;11.474;2023-12-20T06:44:44;5.10;99.90
3792;DHT22;1911;53.768;11.474;2023-12-20T06:47:09;5.10;99.90
3792;DHT22;1911;53.768;11.474;2023-12-20T06:49:35;5.10;99.90
3792;DHT22;1911;53.768;11.474;2023-12-20T06:52:00;5.10;99.90
3792;DHT22;1911;53.768;11.474;2023-12-20T06:54:26;5.10;99.90
3792;DHT22;1911;53.768;11.474;2023-12-20T06:56:51;5.10;99.90
3792;DHT22;1911;53.768;11.474;2023-12-20T06:59:17;5.20;99.90
3792;DHT22;1911;53.768;11.474;2023-12-20T07:01:46;5.20;99.90
3792;DHT22;1911;53.768;11.474;2023-12-20T07:04:23;5.20;99.90
3792;DHT22;1911;53.768;11.474;2023-12-20T07:41:13;6.00;99.90
3792;DHT22;1911;53.768;11.474;2023-12-20T07:43:38;5.70;99.90
3792;DHT22;1911;53.768;11.474;2023-12-20T07:46:08;4.80;99.90
3792;DHT22;1911;53.768;11.474;2023-12-20T07:48:34;5.20;99.90
3792;DHT22;1911;53.768;11.474;2023-12-20T07:51:01;5.20;99.90
3792;DHT22;1911;53.768;11.474;2023-12-20T07:53:27;5.20;99.90
3792;DHT22;1911;53.768;11.474;2023-12-20T07:55:52;5.40;99.90
3792;DHT22;1911;53.768;11.474;2023-12-20T07:58:18;5.20;99.90
3792;DHT22;1911;53.768;11.474;2023-12-20T08:00:44;5.20;99.90
3792;DHT22;1911;53.768;11.474;2023-12-20T08:03:10;5.10;99.90
3792;DHT22;1911;53.768;11.474;2023-12-20T08:05:35;5.10;99.90
3792;DHT22;1911;53.768;11.474;2023-12-20T08:08:01;5.10;99.90
3792;DHT22;1911;53.768;11.474;2023-12-20T08:10:27;5.10;99.90
3792;DHT22;1911;53.768;11.474;2023-12-20T08:12:55;5.20;99.90
3792;DHT22;1911;53.768;11.474;2023-12-20T08:15:20;5.20;99.90
3792;DHT22;1911;53.768;11.474;2023-12-20T08:17:46;5.30;99.90
3792;DHT22;1911;53.768;11.474;2023-12-20T08:20:12;5.30;99.90
3792;DHT22;1911;53.768;11.474;2023-12-20T08:22:37;5.30;99.90
3792;DHT22;1911;53.768;11.474;2023-12-20T08:25:03;5.30;99.90
3792;DHT22;1911;53.768;11.474;2023-12-20T08:27:29;5.30;99.90
3792;DHT22;1911;53.768;11.474;2023-12-20T08:29:57;5.30;99.90
3792;DHT22;1911;53.768;11.474;2023-12-20T08:32:25;5.30;99.90
3792;DHT22;1911;53.768;11.474;2023-12-20T08:34:51;5.30;99.90
3792;DHT22;1911;53.768;11.474;2023-12-20T08:37:17;5.30;99.90
3792;DHT22;1911;53.768;11.474;2023-12-20T08:39:43;5.30;99.90
3792;DHT22;1911;53.768;11.474;2023-12-20T08:42:09;5.40;99.90
3792;DHT22;1911;53.768;11.474;2023-12-20T08:44:34;5.40;99.90
3792;DHT22;1911;53.768;11.474;2023-12-20T08:47:00;5.40;99.90
3792;DHT22;1911;53.768;11.474;2023-12-20T08:49:26;5.40;99.90
3792;DHT22;1911;53.768;11.474;2023-12-20T08:51:51;5.40;99.90
3792;DHT22;1911;53.768;11.474;2023-12-20T08:54:17;5.50;99.90
3792;DHT22;1911;53.768;11.474;2023-12-20T08:56:44;5.50;99.90
3792;DHT22;1911;53.768;11.474;2023-12-20T08:59:10;5.50;99.90
3792;DHT22;1911;53.768;11.474;2023-12-20T09:01:35;5.50;99.90
3792;DHT22;1911;53.768;11.474;2023-12-20T09:04:01;5.50;99.90
3792;DHT22;1911;53.768;11.474;2023-12-20T09:06:26;5.50;99.90
3792;DHT22;1911;53.768;11.474;2023-12-20T09:08:52;5.50;99.90
3792;DHT22;1911;53.768;11.474;2023-12-20T09:11:17;5.50;99.90
3792;DHT22;1911;53.768;11.474;2023-12-20T09:13:43;5.60;99.90
3792;DHT22;1911;53.768;11.474;2023-12-20T09:16:10;5.70;99.90
3792;DHT22;1911;53.768;11.474;2023-12-20T09:18:35;5.70;99.90
3792;DHT22;1911;53.768;11.474;2023-12-20T09:21:01;5.80;99.90
3792;DHT22;1911;53.768;11.474;2023-12-20T09:23:27;5.80;99.90
3792;DHT22;1911;53.768;11.474;2023-12-20T09:25:53;5.80;99.90
3792;DHT22;1911;53.768;11.474;2023-12-20T09:28:19;5.80;99.90
3792;DHT22;1911;53.768;11.474;2023-12-20T09:30:44;5.90;99.90
3792;DHT22;1911;53.768;11.474;2023-12-20T09:33:11;6.00;99.90
3792;DHT22;1911;53.768;11.474;2023-12-20T09:35:37;6.10;99.90
3792;DHT22;1911;53.768;11.474;2023-12-20T09:38:03;6.10;99.90
3792;DHT22;1911;53.768;11.474;2023-12-20T09:40:29;6.20;99.90
3792;DHT22;1911;53.768;11.474;2023-12-20T09:42:58;6.20;99.90
3792;DHT22;1911;53.768;11.474;2023-12-20T09:45:24;6.20;99.90
3792;DHT22;1911;53.768;11.474;2023-12-20T09:47:51;6.10;99.90
3792;DHT22;1911;53.768;11.474;2023-12-20T09:50:21;6.00;99.90
3792;DHT22;1911;53.768;11.474;2023-12-20T09:52:51;6.00;99.90
3792;DHT22;1911;53.768;11.474;2023-12-20T09:55:18;5.90;99.90
3792;DHT22;1911;53.768;11.474;2023-12-20T09:57:45;5.90;99.90
3792;DHT22;1911;53.768;11.474;2023-12-20T10:00:12;5.90;99.90
3792;DHT22;1911;53.768;11.474;2023-12-20T10:02:42;5.90;99.90
3792;DHT22;1911;53.768;11.474;2023-12-20T10:05:15;5.80;99.90
3792;DHT22;1911;53.768;11.474;2023-12-20T10:07:41;5.80;99.90
3792;DHT22;1911;53.768;11.474;2023-12-20T10:10:07;5.70;99.90
3792;DHT22;1911;53.768;11.474;2023-12-20T10:12:34;5.60;99.90
3792;DHT22;1911;53.768;11.474;2023-12-20T10:14:59;5.60;99.90
3792;DHT22;1911;53.768;11.474;2023-12-20T10:17:27;5.60;99.90
3792;DHT22;1911;53.768;11.474;2023-12-20T10:19:54;5.60;99.90
3792;DHT22;1911;53.768;11.474;2023-12-20T10:22:20;5.60;99.90
3792;DHT22;1911;53.768;11.474;2023-12-20T10:24:46;5.50;99.90
3792;DHT22;1911;53.768;11.474;2023-12-20T10:27:12;5.50;99.90
3792;DHT22;1911;53.768;11.474;2023-12-20T10:29:38;5.50;99.90
3792;DHT22;1911;53.768;11.474;2023-12-20T10:32:26;5.50;99.90
3792;DHT22;1911;53.768;11.474;2023-12-20T10:34:54;5.50;99.90
3792;DHT22;1911;53.768;11.474;2023-12-20T10:37:19;5.50;99.90
3792;DHT22;1911;53.768;11.474;2023-12-20T10:39:53;5.50;99.90
3792;DHT22;1911;53.768;11.474;2023-12-20T10:42:22;5.40;99.90
3792;DHT22;1911;53.768;11.474;2023-12-20T10:44:49;5.50;99.90
3792;DHT22;1911;53.768;11.474;2023-12-20T10:47:16;5.60;99.90
3792;DHT22;1911;53.768;11.474;2023-12-20T10:49:43;5.50;99.90
3792;DHT22;1911;53.768;11.474;2023-12-20T10:52:11;5.50;99.90
3792;DHT22;1911;53.768;11.474;2023-12-20T10:54:41;5.50;99.90
3792;DHT22;1911;53.768;11.474;2023-12-20T10:57:07;5.50;99.90
3792;DHT22;1911;53.768;11.474;2023-12-20T10:59:39;5.50;99.90
3792;DHT22;1911;53.768;11.474;2023-12-20T11:02:05;5.40;99.90
3792;DHT22;1911;53.768;11.474;2023-12-20T11:04:59;5.40;99.90
3792;DHT22;1911;53.768;11.474;2023-12-20T11:07:29;5.40;99.90
3792;DHT22;1911;53.768;11.474;2023-12-20T11:10:04;5.40;99.90
3792;DHT22;1911;53.768;11.474;2023-12-20T11:12:39;5.40;99.90
3792;DHT22;1911;53.768;11.474;2023-12-20T11:15:07;5.40;99.90
3792;DHT22;1911;53.768;11.474;2023-12-20T11:17:32;5.40;99.90
3792;DHT22;1911;53.768;11.474;2023-12-20T11:22:25;5.40;99.90
3792;DHT22;1911;53.768;11.474;2023-12-20T11:24:52;5.30;99.90
3792;DHT22;1911;53.768;11.474;2023-12-20T11:27:18;5.30;99.90
3792;DHT22;1911;53.768;11.474;2023-12-20T11:29:51;5.30;99.90
3792;DHT22;1911;53.768;11.474;2023-12-20T11:35:00;5.20;99.90
3792;DHT22;1911;53.768;11.474;2023-12-20T11:37:31;5.20;99.90
3792;DHT22;1911;53.768;11.474;2023-12-20T11:40:02;5.30;99.90
3792;DHT22;1911;53.768;11.474;2023-12-20T11:42:28;5.20;99.90
3792;DHT22;1911;53.768;11.474;2023-12-20T11:44:57;5.20;99.90
3792;DHT22;1911;53.768;11.474;2023-12-20T11:47:23;5.30;99.90
3792;DHT22;1911;53.768;11.474;2023-12-20T11:49:48;5.30;99.90
3792;DHT22;1911;53.768;11.474;2023-12-20T11:52:14;5.30;99.90
3792;DHT22;1911;53.768;11.474;2023-12-20T11:54:40;5.30;99.90
3792;DHT22;1911;53.768;11.474;2023-12-20T11:57:05;5.30;99.90
3792;DHT22;1911;53.768;11.474;2023-12-20T11:59:31;5.20;99.90
3792;DHT22;1911;53.768;11.474;2023-12-20T12:01:58;5.20;99.90
3792;DHT22;1911;53.768;11.474;2023-12-20T12:04:26;5.10;99.90
3792;DHT22;1911;53.768;11.474;2023-12-20T12:06:52;5.10;99.90
3792;DHT22;1911;53.768;11.474;2023-12-20T12:09:18;4.90;99.90
3792;DHT22;1911;53.768;11.474;2023-12-20T12:11:43;4.80;99.90
3792;DHT22;1911;53.768;11.474;2023-12-20T12:14:09;4.60;99.90
3792;DHT22;1911;53.768;11.474;2023-12-20T12:16:35;4.60;99.90
3792;DHT22;1911;53.768;11.474;2023-12-20T12:19:01;4.50;99.90
3792;DHT22;1911;53.768;11.474;2023-12-20T12:21:27;4.50;99.90
3792;DHT22;1911;53.768;11.474;2023-12-20T12:23:52;4.40;99.90
3792;DHT22;1911;53.768;11.474;2023-12-20T12:26:18;4.40;99.90
3792;DHT22;1911;53.768;11.474;2023-12-20T12:28:44;4.40;99.90
3792;DHT22;1911;53.768;11.474;2023-12-20T12:31:16;4.50;99.90
3792;DHT22;1911;53.768;11.474;2023-12-20T12:33:41;4.60;99.90
3792;DHT22;1911;53.768;11.474;2023-12-20T12:36:08;4.60;99.90
3792;DHT22;1911;53.768;11.474;2023-12-20T12:38:33;4.80;99.90
3792;DHT22;1911;53.768;11.474;2023-12-20T12:41:00;4.90;99.90
3792;DHT22;1911;53.768;11.474;2023-12-20T12:43:26;4.90;99.90
3792;DHT22;1911;53.768;11.474;2023-12-20T12:45:52;4.90;99.90
3792;DHT22;1911;53.768;11.474;2023-12-20T12:48:18;5.00;99.90
3792;DHT22;1911;53.768;11.474;2023-12-20T12:50:44;5.00;99.90
3792;DHT22;1911;53.768;11.474;2023-12-20T12:53:10;5.00;99.90
3792;DHT22;1911;53.768;11.474;2023-12-20T12:55:36;5.00;99.90
3792;DHT22;1911;53.768;11.474;2023-12-20T12:58:01;5.00;99.90
3792;DHT22;1911;53.768;11.474;2023-12-20T13:00:27;5.00;99.90
3792;DHT22;1911;53.768;11.474;2023-12-20T13:02:53;5.00;99.90
3792;DHT22;1911;53.768;11.474;2023-12-20T13:05:18;5.30;99.90
3792;DHT22;1911;53.768;11.474;2023-12-20T13:07:44;5.10;99.90
3792;DHT22;1911;53.768;11.474;2023-12-20T13:10:11;5.20;99.90
3792;DHT22;1911;53.768;11.474;2023-12-20T13:12:36;5.20;99.90
3792;DHT22;1911;53.768;11.474;2023-12-20T13:15:02;5.00;99.90
3792;DHT22;1911;53.768;11.474;2023-12-20T13:17:29;5.20;99.90
3792;DHT22;1911;53.768;11.474;2023-12-20T13:19:55;5.20;99.90
3792;DHT22;1911;53.768;11.474;2023-12-20T13:22:20;5.20;99.90
3792;DHT22;1911;53.768;11.474;2023-12-20T13:24:46;5.10;99.90
3792;DHT22;1911;53.768;11.474;2023-12-20T13:27:11;5.10;99.90
3792;DHT22;1911;53.768;11.474;2023-12-20T13:29:37;5.20;99.90
3792;DHT22;1911;53.768;11.474;2023-12-20T13:32:03;5.10;99.90
3792;DHT22;1911;53.768;11.474;2023-12-20T13:34:29;5.10;99.90
3792;DHT22;1911;53.768;11.474;2023-12-20T13:36:55;5.10;99.90
3792;DHT22;1911;53.768;11.474;2023-12-20T13:39:20;5.10;99.90
3792;DHT22;1911;53.768;11.474;2023-12-20T13:41:46;5.10;99.90
3792;DHT22;1911;53.768;11.474;2023-12-20T13:44:12;5.10;99.90
3792;DHT22;1911;53.768;11.474;2023-12-20T13:46:43;5.20;99.90
3792;DHT22;1911;53.768;11.474;2023-12-20T13:49:08;5.30;99.90
3792;DHT22;1911;53.768;11.474;2023-12-20T13:51:34;5.60;99.90
3792;DHT22;1911;53.768;11.474;2023-12-20T13:54:00;5.10;99.90
3792;DHT22;1911;53.768;11.474;2023-12-20T13:56:26;5.10;99.90
3792;DHT22;1911;53.768;11.474;2023-12-20T13:58:51;5.10;99.90
3792;DHT22;1911;53.768;11.474;2023-12-20T14:01:17;5.20;99.90
3792;DHT22;1911;53.768;11.474;2023-12-20T14:03:43;5.20;99.90
3792;DHT22;1911;53.768;11.474;2023-12-20T14:06:08;5.20;99.90
3792;DHT22;1911;53.768;11.474;2023-12-20T14:08:34;5.20;99.90
3792;DHT22;1911;53.768;11.474;2023-12-20T14:11:02;5.10;99.90
3792;DHT22;1911;53.768;11.474;2023-12-20T14:13:28;5.10;99.90
3792;DHT22;1911;53.768;11.474;2023-12-20T14:15:53;5.20;99.90
3792;DHT22;1911;53.768;11.474;2023-12-20T14:18:20;5.20;99.90
3792;DHT22;1911;53.768;11.474;2023-12-20T14:20:45;5.20;99.90
3792;DHT22;1911;53.768;11.474;2023-12-20T14:23:13;5.20;99.90
3792;DHT22;1911;53.768;11.474;2023-12-20T14:25:41;5.20;99.90
3792;DHT22;1911;53.768;11.474;2023-12-20T14:28:07;5.10;99.90
3792;DHT22;1911;53.768;11.474;2023-12-20T14:30:32;5.10;99.90
3792;DHT22;1911;53.768;11.474;2023-12-20T14:32:59;5.10;99.90
3792;DHT22;1911;53.768;11.474;2023-12-20T14:35:24;5.10;99.90
3792;DHT22;1911;53.768;11.474;2023-12-20T14:37:50;5.10;99.90
3792;DHT22;1911;53.768;11.474;2023-12-20T14:40:16;5.00;99.90
3792;DHT22;1911;53.768;11.474;2023-12-20T14:42:43;5.00;99.90
3792;DHT22;1911;53.768;11.474;2023-12-20T14:45:09;5.00;99.90
3792;DHT22;1911;53.768;11.474;2023-12-20T14:47:35;5.00;99.90
3792;DHT22;1911;53.768;11.474;2023-12-20T14:50:04;5.00;99.90
3792;DHT22;1911;53.768;11.474;2023-12-20T14:52:32;5.00;99.90
3792;DHT22;1911;53.768;11.474;2023-12-20T14:54:59;5.00;99.90
3792;DHT22;1911;53.768;11.474;2023-12-20T14:57:25;5.00;99.90
3792;DHT22;1911;53.768;11.474;2023-12-20T14:59:51;5.10;99.90
3792;DHT22;1911;53.768;11.474;2023-12-20T15:02:17;5.10;99.90
3792;DHT22;1911;53.768;11.474;2023-12-20T15:04:43;5.10;99.90
3792;DHT22;1911;53.768;11.474;2023-12-20T15:07:08;5.10;99.90
3792;DHT22;1911;53.768;11.474;2023-12-20T15:09:34;5.30;99.90
3792;DHT22;1911;53.768;11.474;2023-12-20T15:11:59;5.10;99.90
3792;DHT22;1911;53.768;11.474;2023-12-20T15:14:26;5.10;99.90
3792;DHT22;1911;53.768;11.474;2023-12-20T15:16:53;5.10;99.90
3792;DHT22;1911;53.768;11.474;2023-12-20T15:19:20;5.20;99.90
3792;DHT22;1911;53.768;11.474;2023-12-20T15:21:46;5.20;99.90
3792;DHT22;1911;53.768;11.474;2023-12-20T15:24:12;5.30;99.90
3792;DHT22;1911;53.768;11.474;2023-12-20T15:26:42;5.40;99.90
3792;DHT22;1911;53.768;11.474;2023-12-20T15:29:09;5.40;99.90
3792;DHT22;1911;53.768;11.474;2023-12-20T15:31:36;5.40;99.90
3792;DHT22;1911;53.768;11.474;2023-12-20T15:34:02;5.40;99.90
3792;DHT22;1911;53.768;11.474;2023-12-20T15:36:28;5.30;99.90
3792;DHT22;1911;53.768;11.474;2023-12-20T15:38:53;5.30;99.90
3792;DHT22;1911;53.768;11.474;2023-12-20T15:41:20;5.30;99.90
3792;DHT22;1911;53.768;11.474;2023-12-20T15:43:46;5.30;99.90
3792;DHT22;1911;53.768;11.474;2023-12-20T15:46:11;5.30;99.90
3792;DHT22;1911;53.768;11.474;2023-12-20T15:48:37;5.30;99.90
3792;DHT22;1911;53.768;11.474;2023-12-20T15:51:07;5.30;99.90
3792;DHT22;1911;53.768;11.474;2023-12-20T15:53:33;5.30;99.90
3792;DHT22;1911;53.768;11.474;2023-12-20T15:55:59;5.30;99.90
3792;DHT22;1911;53.768;11.474;2023-12-20T15:58:24;5.30;99.90
3792;DHT22;1911;53.768;11.474;2023-12-20T16:00:50;5.30;99.90
3792;DHT22;1911;53.768;11.474;2023-12-20T16:03:16;5.30;99.90
3792;DHT22;1911;53.768;11.474;2023-12-20T16:05:41;5.30;99.90
3792;DHT22;1911;53.768;11.474;2023-12-20T16:08:07;5.30;99.90
3792;DHT22;1911;53.768;11.474;2023-12-20T16:10:33;5.30;99.90
3792;DHT22;1911;53.768;11.474;2023-12-20T16:12:58;5.40;99.90
3792;DHT22;1911;53.768;11.474;2023-12-20T16:15:24;5.30;99.90
3792;DHT22;1911;53.768;11.474;2023-12-20T16:17:49;5.30;99.90
3792;DHT22;1911;53.768;11.474;2023-12-20T16:20:15;5.30;99.90
3792;DHT22;1911;53.768;11.474;2023-12-20T16:22:41;5.30;99.90
3792;DHT22;1911;53.768;11.474;2023-12-20T16:25:07;5.30;99.90
3792;DHT22;1911;53.768;11.474;2023-12-20T16:27:34;5.20;99.90
3792;DHT22;1911;53.768;11.474;2023-12-20T16:30:04;5.20;99.90
3792;DHT22;1911;53.768;11.474;2023-12-20T16:32:30;5.10;99.90
3792;DHT22;1911;53.768;11.474;2023-12-20T16:34:55;5.10;99.90